sensor_id;sensor_type;location;lat;lon;timestamp;pressure;altitude;pressure_sealevel;temperature;humidity
16613;BME280;8419;52.358;9.752;2023-02-14T00:00:27;102988.00;;;13.58;41.66
16613;BME280;8419;52.358;9.752;2023-02-14T00:03:13;102995.00;;;13.60;41.57
16613;BME280;8419;52.358;9.752;2023-02-14T00:06:05;102987.00;;;13.60;41.58
16613;BME280;8419;52.358;9.752;2023-02-14T00:08:50;103000.00;;;13.65;41.52
16613;BME280;8419;52.358;9.752;2023-02-14T00:11:38;102987.00;;;13.58;41.57
16613;BME280;8419;52.358;9.752;2023-02-14T00:14:24;102991.00;;;13.55;41.61
16613;BME280;8419;52.358;9.752;2023-02-14T00:17:41;102987.00;;;13.52;41.64
16613;BME280;8419;52.358;9.752;2023-02-14T00:20:27;102995.00;;;13.48;41.71
16613;BME280;8419;52.358;9.752;2023-02-14T00:23:13;102985.00;;;13.51;41.61
16613;BME280;8419;52.358;9.752;2023-02-14T00:25:58;102991.00;;;13.41;41.80
16613;BME280;8419;52.358;9.752;2023-02-14T00:28:44;102991.00;;;13.43;41.77
16613;BME280;8419;52.358;9.752;2023-02-14T00:31:29;102988.00;;;13.39;41.84
16613;BME280;8419;52.358;9.752;2023-02-14T00:34:16;102988.00;;;13.36;41.89
16613;BME280;8419;52.358;9.752;2023-02-14T00:37:01;102988.00;;;13.31;41.92
16613;BME280;8419;52.358;9.752;2023-02-14T00:39:47;102980.00;;;13.33;41.91
16613;BME280;8419;52.358;9.752;2023-02-14T00:42:33;102983.00;;;13.30;41.92
16613;BME280;8419;52.358;9.752;2023-02-14T00:45:19;102984.00;;;13.26;42.00
16613;BME280;8419;52.358;9.752;2023-02-14T00:48:05;102981.00;;;13.24;42.04
16613;BME280;8419;52.358;9.752;2023-02-14T00:50:50;102988.00;;;13.26;41.96
16613;BME280;8419;52.358;9.752;2023-02-14T00:53:37;102995.00;;;13.26;41.93
16613;BME280;8419;52.358;9.752;2023-02-14T00:56:23;102995.00;;;13.21;41.99
16613;BME280;8419;52.358;9.752;2023-02-14T00:59:08;102991.00;;;13.18;42.00
16613;BME280;8419;52.358;9.752;2023-02-14T01:01:53;103000.00;;;13.17;41.99
16613;BME280;8419;52.358;9.752;2023-02-14T01:04:39;103008.00;;;13.15;42.02
16613;BME280;8419;52.358;9.752;2023-02-14T01:07:24;103003.00;;;13.14;42.06
16613;BME280;8419;52.358;9.752;2023-02-14T01:10:10;103009.00;;;13.13;42.04
16613;BME280;8419;52.358;9.752;2023-02-14T01:12:56;103004.00;;;13.13;42.00
16613;BME280;8419;52.358;9.752;2023-02-14T01:15:44;103001.00;;;13.10;42.04
16613;BME280;8419;52.358;9.752;2023-02-14T01:18:30;102999.00;;;13.06;42.11
16613;BME280;8419;52.358;9.752;2023-02-14T01:21:17;102994.00;;;13.01;42.18
16613;BME280;8419;52.358;9.752;2023-02-14T01:24:05;102990.00;;;13.04;42.10
16613;BME280;8419;52.358;9.752;2023-02-14T01:26:51;102989.00;;;12.95;42.24
16613;BME280;8419;52.358;9.752;2023-02-14T01:29:37;102994.00;;;13.03;42.06
16613;BME280;8419;52.358;9.752;2023-02-14T01:32:23;102996.00;;;13.03;42.03
16613;BME280;8419;52.358;9.752;2023-02-14T01:35:09;102995.00;;;12.95;42.15
16613;BME280;8419;52.358;9.752;2023-02-14T01:37:54;102993.00;;;12.94;42.10
16613;BME280;8419;52.358;9.752;2023-02-14T01:40:42;102989.00;;;12.95;42.09
16613;BME280;8419;52.358;9.752;2023-02-14T01:43:27;102992.00;;;12.95;42.08
16613;BME280;8419;52.358;9.752;2023-02-14T01:46:13;102996.00;;;12.90;42.17
16613;BME280;8419;52.358;9.752;2023-02-14T01:49:01;102989.00;;;12.92;42.09
16613;BME280;8419;52.358;9.752;2023-02-14T01:51:49;102997.00;;;12.87;42.15
16613;BME280;8419;52.358;9.752;2023-02-14T01:54:39;102994.00;;;12.87;42.13
16613;BME280;8419;52.358;9.752;2023-02-14T01:57:30;102996.00;;;12.88;42.12
16613;BME280;8419;52.358;9.752;2023-02-14T02:00:19;102988.00;;;12.93;41.99
16613;BME280;8419;52.358;9.752;2023-02-14T02:03:27;102995.00;;;12.89;41.99
16613;BME280;8419;52.358;9.752;2023-02-14T02:06:16;102995.00;;;12.80;42.15
16613;BME280;8419;52.358;9.752;2023-02-14T02:09:10;102989.00;;;12.84;42.00
16613;BME280;8419;52.358;9.752;2023-02-14T02:11:57;102983.00;;;12.79;42.07
16613;BME280;8419;52.358;9.752;2023-02-14T02:14:43;102983.00;;;12.72;42.21
16613;BME280;8419;52.358;9.752;2023-02-14T02:17:32;102979.00;;;12.71;42.24
16613;BME280;8419;52.358;9.752;2023-02-14T02:24:13;102973.00;;;12.69;42.26
16613;BME280;8419;52.358;9.752;2023-02-14T02:27:23;102967.00;;;12.67;42.22
16613;BME280;8419;52.358;9.752;2023-02-14T02:30:34;102965.00;;;12.56;42.36
16613;BME280;8419;52.358;9.752;2023-02-14T02:33:52;102962.00;;;12.56;42.32
16613;BME280;8419;52.358;9.752;2023-02-14T02:37:08;102951.00;;;12.45;42.44
16613;BME280;8419;52.358;9.752;2023-02-14T02:40:06;102944.00;;;12.47;42.36
16613;BME280;8419;52.358;9.752;2023-02-14T02:43:02;102943.00;;;12.39;42.45
16613;BME280;8419;52.358;9.752;2023-02-14T02:45:57;102942.00;;;12.41;42.39
16613;BME280;8419;52.358;9.752;2023-02-14T02:49:10;102931.00;;;12.40;42.42
16613;BME280;8419;52.358;9.752;2023-02-14T02:51:59;102937.00;;;12.34;42.53
16613;BME280;8419;52.358;9.752;2023-02-14T02:55:12;102925.00;;;12.33;42.47
16613;BME280;8419;52.358;9.752;2023-02-14T02:57:59;102930.00;;;12.35;42.44
16613;BME280;8419;52.358;9.752;2023-02-14T03:00:46;102928.00;;;12.35;42.40
16613;BME280;8419;52.358;9.752;2023-02-14T03:03:34;102936.00;;;12.35;42.41
16613;BME280;8419;52.358;9.752;2023-02-14T03:06:39;102935.00;;;12.34;42.39
16613;BME280;8419;52.358;9.752;2023-02-14T03:09:50;102940.00;;;12.30;42.42
16613;BME280;8419;52.358;9.752;2023-02-14T03:13:01;102932.00;;;12.34;42.32
16613;BME280;8419;52.358;9.752;2023-02-14T03:16:04;102929.00;;;12.30;42.37
16613;BME280;8419;52.358;9.752;2023-02-14T03:22:17;102926.00;;;12.21;42.50
16613;BME280;8419;52.358;9.752;2023-02-14T03:25:13;102932.00;;;12.19;42.69
16613;BME280;8419;52.358;9.752;2023-02-14T03:28:10;102922.00;;;12.36;42.43
16613;BME280;8419;52.358;9.752;2023-02-14T03:30:59;102924.00;;;12.42;42.41
16613;BME280;8419;52.358;9.752;2023-02-14T03:33:55;102923.00;;;12.48;42.35
16613;BME280;8419;52.358;9.752;2023-02-14T03:36:47;102924.00;;;12.54;42.30
16613;BME280;8419;52.358;9.752;2023-02-14T03:39:39;102919.00;;;12.54;42.28
16613;BME280;8419;52.358;9.752;2023-02-14T03:42:31;102921.00;;;12.74;41.93
16613;BME280;8419;52.358;9.752;2023-02-14T03:45:22;102913.00;;;12.79;41.82
16613;BME280;8419;52.358;9.752;2023-02-14T03:48:13;102913.00;;;12.77;41.87
16613;BME280;8419;52.358;9.752;2023-02-14T03:51:03;102907.00;;;12.78;41.78
16613;BME280;8419;52.358;9.752;2023-02-14T03:53:52;102908.00;;;12.73;41.77
16613;BME280;8419;52.358;9.752;2023-02-14T03:56:43;102907.00;;;12.71;41.78
16613;BME280;8419;52.358;9.752;2023-02-14T03:59:30;102899.00;;;12.65;41.88
16613;BME280;8419;52.358;9.752;2023-02-14T04:02:20;102904.00;;;12.72;41.74
16613;BME280;8419;52.358;9.752;2023-02-14T04:05:12;102897.00;;;12.68;41.72
16613;BME280;8419;52.358;9.752;2023-02-14T04:08:00;102897.00;;;12.63;41.76
16613;BME280;8419;52.358;9.752;2023-02-14T04:10:45;102899.00;;;12.56;41.85
16613;BME280;8419;52.358;9.752;2023-02-14T04:13:31;102897.00;;;12.68;41.57
16613;BME280;8419;52.358;9.752;2023-02-14T04:16:18;102900.00;;;12.71;41.44
16613;BME280;8419;52.358;9.752;2023-02-14T04:19:04;102888.00;;;12.64;41.53
16613;BME280;8419;52.358;9.752;2023-02-14T04:22:08;102890.00;;;12.59;41.60
16613;BME280;8419;52.358;9.752;2023-02-14T04:24:53;102892.00;;;12.57;41.54
16613;BME280;8419;52.358;9.752;2023-02-14T04:27:39;102886.00;;;12.49;41.65
16613;BME280;8419;52.358;9.752;2023-02-14T04:30:25;102891.00;;;12.46;41.68
16613;BME280;8419;52.358;9.752;2023-02-14T04:33:10;102889.00;;;12.52;41.47
16613;BME280;8419;52.358;9.752;2023-02-14T04:35:56;102890.00;;;12.51;41.44
16613;BME280;8419;52.358;9.752;2023-02-14T04:38:41;102876.00;;;12.43;41.57
16613;BME280;8419;52.358;9.752;2023-02-14T04:41:26;102876.00;;;12.42;41.56
16613;BME280;8419;52.358;9.752;2023-02-14T04:44:11;102875.00;;;12.47;41.48
16613;BME280;8419;52.358;9.752;2023-02-14T04:46:57;102875.00;;;12.47;41.44
16613;BME280;8419;52.358;9.752;2023-02-14T04:49:43;102866.00;;;12.48;41.43
16613;BME280;8419;52.358;9.752;2023-02-14T04:52:28;102871.00;;;12.42;41.52
16613;BME280;8419;52.358;9.752;2023-02-14T04:55:14;102875.00;;;12.44;41.44
16613;BME280;8419;52.358;9.752;2023-02-14T04:58:00;102866.00;;;12.48;41.37
16613;BME280;8419;52.358;9.752;2023-02-14T05:00:45;102868.00;;;12.29;41.82
16613;BME280;8419;52.358;9.752;2023-02-14T05:03:31;102876.00;;;12.39;41.60
16613;BME280;8419;52.358;9.752;2023-02-14T05:06:16;102874.00;;;12.40;41.56
16613;BME280;8419;52.358;9.752;2023-02-14T05:09:03;102874.00;;;12.48;41.44
16613;BME280;8419;52.358;9.752;2023-02-14T05:11:48;102874.00;;;12.44;41.44
16613;BME280;8419;52.358;9.752;2023-02-14T05:14:33;102877.00;;;12.39;41.51
16613;BME280;8419;52.358;9.752;2023-02-14T05:17:19;102868.00;;;12.43;41.45
16613;BME280;8419;52.358;9.752;2023-02-14T05:20:07;102863.00;;;12.47;41.37
16613;BME280;8419;52.358;9.752;2023-02-14T05:22:54;102872.00;;;12.38;41.46
16613;BME280;8419;52.358;9.752;2023-02-14T05:25:40;102867.00;;;12.27;41.68
16613;BME280;8419;52.358;9.752;2023-02-14T05:28:26;102871.00;;;12.33;41.60
16613;BME280;8419;52.358;9.752;2023-02-14T05:31:12;102869.00;;;12.29;41.64
16613;BME280;8419;52.358;9.752;2023-02-14T05:33:57;102859.00;;;12.30;41.54
16613;BME280;8419;52.358;9.752;2023-02-14T05:36:43;102859.00;;;12.23;41.63
16613;BME280;8419;52.358;9.752;2023-02-14T05:39:29;102860.00;;;12.32;41.37
16613;BME280;8419;52.358;9.752;2023-02-14T05:42:14;102856.00;;;12.30;41.36
16613;BME280;8419;52.358;9.752;2023-02-14T05:45:00;102860.00;;;12.32;41.30
16613;BME280;8419;52.358;9.752;2023-02-14T05:47:47;102863.00;;;12.33;41.29
16613;BME280;8419;52.358;9.752;2023-02-14T05:50:32;102865.00;;;12.31;41.31
16613;BME280;8419;52.358;9.752;2023-02-14T05:53:18;102864.00;;;12.26;41.37
16613;BME280;8419;52.358;9.752;2023-02-14T05:56:04;102869.00;;;12.23;41.33
16613;BME280;8419;52.358;9.752;2023-02-14T05:58:50;102864.00;;;12.13;41.38
16613;BME280;8419;52.358;9.752;2023-02-14T06:01:36;102869.00;;;12.10;41.35
16613;BME280;8419;52.358;9.752;2023-02-14T06:04:21;102862.00;;;12.09;41.34
16613;BME280;8419;52.358;9.752;2023-02-14T06:07:07;102868.00;;;12.03;41.45
16613;BME280;8419;52.358;9.752;2023-02-14T06:09:53;102873.00;;;11.97;41.47
16613;BME280;8419;52.358;9.752;2023-02-14T06:12:38;102866.00;;;12.02;41.38
16613;BME280;8419;52.358;9.752;2023-02-14T06:15:24;102870.00;;;12.01;41.34
16613;BME280;8419;52.358;9.752;2023-02-14T06:18:09;102864.00;;;12.07;41.20
16613;BME280;8419;52.358;9.752;2023-02-14T06:20:55;102862.00;;;11.94;41.42
16613;BME280;8419;52.358;9.752;2023-02-14T06:23:41;102866.00;;;11.93;41.43
16613;BME280;8419;52.358;9.752;2023-02-14T06:26:26;102869.00;;;11.90;41.45
16613;BME280;8419;52.358;9.752;2023-02-14T06:29:14;102872.00;;;11.84;41.55
16613;BME280;8419;52.358;9.752;2023-02-14T06:32:00;102867.00;;;11.89;41.48
16613;BME280;8419;52.358;9.752;2023-02-14T06:34:49;102877.00;;;11.86;41.52
16613;BME280;8419;52.358;9.752;2023-02-14T06:37:35;102874.00;;;11.84;41.49
16613;BME280;8419;52.358;9.752;2023-02-14T06:40:22;102879.00;;;11.77;41.60
16613;BME280;8419;52.358;9.752;2023-02-14T06:43:08;102880.00;;;11.79;41.59
16613;BME280;8419;52.358;9.752;2023-02-14T06:45:54;102878.00;;;11.78;41.56
16613;BME280;8419;52.358;9.752;2023-02-14T06:48:39;102877.00;;;11.79;41.56
16613;BME280;8419;52.358;9.752;2023-02-14T06:51:25;102877.00;;;11.79;41.52
16613;BME280;8419;52.358;9.752;2023-02-14T06:54:10;102887.00;;;11.80;41.47
16613;BME280;8419;52.358;9.752;2023-02-14T06:56:56;102882.00;;;11.68;41.67
16613;BME280;8419;52.358;9.752;2023-02-14T06:59:42;102884.00;;;11.70;41.67
16613;BME280;8419;52.358;9.752;2023-02-14T07:02:27;102887.00;;;11.73;41.59
16613;BME280;8419;52.358;9.752;2023-02-14T07:05:12;102882.00;;;11.71;41.63
16613;BME280;8419;52.358;9.752;2023-02-14T07:08:00;102885.00;;;11.73;41.57
16613;BME280;8419;52.358;9.752;2023-02-14T07:10:46;102884.00;;;11.72;41.60
16613;BME280;8419;52.358;9.752;2023-02-14T07:13:31;102877.00;;;11.75;41.54
16613;BME280;8419;52.358;9.752;2023-02-14T07:16:17;102888.00;;;11.70;41.62
16613;BME280;8419;52.358;9.752;2023-02-14T07:19:03;102878.00;;;11.69;41.63
16613;BME280;8419;52.358;9.752;2023-02-14T07:21:48;102887.00;;;11.71;41.63
16613;BME280;8419;52.358;9.752;2023-02-14T07:24:34;102882.00;;;11.68;41.73
16613;BME280;8419;52.358;9.752;2023-02-14T07:27:19;102885.00;;;11.73;41.69
16613;BME280;8419;52.358;9.752;2023-02-14T07:30:08;102881.00;;;11.74;41.63
16613;BME280;8419;52.358;9.752;2023-02-14T07:32:54;102877.00;;;11.76;41.68
16613;BME280;8419;52.358;9.752;2023-02-14T07:35:41;102878.00;;;11.88;41.55
16613;BME280;8419;52.358;9.752;2023-02-14T07:38:27;102880.00;;;11.83;41.70
16613;BME280;8419;52.358;9.752;2023-02-14T07:41:16;102884.00;;;11.85;41.75
16613;BME280;8419;52.358;9.752;2023-02-14T07:44:02;102881.00;;;11.92;41.65
16613;BME280;8419;52.358;9.752;2023-02-14T07:46:48;102878.00;;;11.91;41.74
16613;BME280;8419;52.358;9.752;2023-02-14T07:49:34;102866.00;;;11.97;41.73
16613;BME280;8419;52.358;9.752;2023-02-14T07:52:19;102872.00;;;12.09;41.60
16613;BME280;8419;52.358;9.752;2023-02-14T07:55:06;102869.00;;;12.18;41.54
16613;BME280;8419;52.358;9.752;2023-02-14T07:57:52;102870.00;;;12.25;41.52
16613;BME280;8419;52.358;9.752;2023-02-14T08:00:38;102873.00;;;12.28;41.57
16613;BME280;8419;52.358;9.752;2023-02-14T08:03:23;102868.00;;;12.41;41.41
16613;BME280;8419;52.358;9.752;2023-02-14T08:06:09;102872.00;;;12.35;41.64
16613;BME280;8419;52.358;9.752;2023-02-14T08:08:57;102868.00;;;12.50;41.46
16613;BME280;8419;52.358;9.752;2023-02-14T08:11:47;102870.00;;;12.55;41.43
16613;BME280;8419;52.358;9.752;2023-02-14T08:14:51;102869.00;;;12.59;41.47
16613;BME280;8419;52.358;9.752;2023-02-14T08:17:37;102874.00;;;12.60;41.49
16613;BME280;8419;52.358;9.752;2023-02-14T08:20:23;102875.00;;;12.64;41.53
16613;BME280;8419;52.358;9.752;2023-02-14T08:23:08;102877.00;;;12.72;41.50
16613;BME280;8419;52.358;9.752;2023-02-14T08:25:54;102872.00;;;12.81;41.41
16613;BME280;8419;52.358;9.752;2023-02-14T08:28:39;102882.00;;;12.85;41.42
16613;BME280;8419;52.358;9.752;2023-02-14T08:31:27;102870.00;;;12.89;41.47
16613;BME280;8419;52.358;9.752;2023-02-14T08:34:13;102870.00;;;12.94;41.49
16613;BME280;8419;52.358;9.752;2023-02-14T08:36:59;102870.00;;;13.05;41.43
16613;BME280;8419;52.358;9.752;2023-02-14T08:39:45;102862.00;;;13.09;41.45
16613;BME280;8419;52.358;9.752;2023-02-14T08:42:31;102868.00;;;13.08;41.58
16613;BME280;8419;52.358;9.752;2023-02-14T08:45:18;102867.00;;;13.11;41.76
16613;BME280;8419;52.358;9.752;2023-02-14T08:48:06;102865.00;;;13.25;41.54
16613;BME280;8419;52.358;9.752;2023-02-14T08:50:52;102860.00;;;13.31;41.55
16613;BME280;8419;52.358;9.752;2023-02-14T08:53:38;102866.00;;;13.37;41.62
16613;BME280;8419;52.358;9.752;2023-02-14T08:56:23;102865.00;;;13.53;41.44
16613;BME280;8419;52.358;9.752;2023-02-14T08:59:09;102864.00;;;13.69;41.28
16613;BME280;8419;52.358;9.752;2023-02-14T09:01:55;102863.00;;;13.80;41.24
16613;BME280;8419;52.358;9.752;2023-02-14T09:04:40;102864.00;;;13.92;41.22
16613;BME280;8419;52.358;9.752;2023-02-14T09:07:26;102860.00;;;14.02;41.18
16613;BME280;8419;52.358;9.752;2023-02-14T09:10:12;102855.00;;;14.13;41.16
16613;BME280;8419;52.358;9.752;2023-02-14T09:13:01;102867.00;;;14.31;41.03
16613;BME280;8419;52.358;9.752;2023-02-14T09:15:46;102858.00;;;14.43;40.98
16613;BME280;8419;52.358;9.752;2023-02-14T09:18:32;102857.00;;;14.56;40.92
16613;BME280;8419;52.358;9.752;2023-02-14T09:21:23;102849.00;;;14.70;40.88
16613;BME280;8419;52.358;9.752;2023-02-14T09:24:09;102855.00;;;14.83;40.81
16613;BME280;8419;52.358;9.752;2023-02-14T09:26:55;102857.00;;;14.93;40.83
16613;BME280;8419;52.358;9.752;2023-02-14T09:29:42;102860.00;;;15.03;40.83
16613;BME280;8419;52.358;9.752;2023-02-14T09:32:27;102853.00;;;15.22;40.65
16613;BME280;8419;52.358;9.752;2023-02-14T09:35:13;102850.00;;;15.24;40.79
16613;BME280;8419;52.358;9.752;2023-02-14T09:38:17;102857.00;;;15.32;40.79
16613;BME280;8419;52.358;9.752;2023-02-14T09:41:06;102854.00;;;15.49;40.67
16613;BME280;8419;52.358;9.752;2023-02-14T09:43:56;102856.00;;;15.67;40.49
16613;BME280;8419;52.358;9.752;2023-02-14T09:46:47;102847.00;;;15.80;40.41
16613;BME280;8419;52.358;9.752;2023-02-14T09:49:37;102852.00;;;15.90;40.39
16613;BME280;8419;52.358;9.752;2023-02-14T09:52:27;102836.00;;;16.05;40.23
16613;BME280;8419;52.358;9.752;2023-02-14T09:55:15;102843.00;;;16.22;40.13
16613;BME280;8419;52.358;9.752;2023-02-14T09:58:08;102839.00;;;16.32;40.02
16613;BME280;8419;52.358;9.752;2023-02-14T10:01:01;102833.00;;;16.44;39.94
16613;BME280;8419;52.358;9.752;2023-02-14T10:04:13;102839.00;;;16.54;39.94
16613;BME280;8419;52.358;9.752;2023-02-14T10:07:09;102835.00;;;16.67;39.90
16613;BME280;8419;52.358;9.752;2023-02-14T10:10:04;102834.00;;;16.79;39.80
16613;BME280;8419;52.358;9.752;2023-02-14T10:12:55;102837.00;;;16.90;39.70
16613;BME280;8419;52.358;9.752;2023-02-14T10:15:45;102837.00;;;17.04;39.60
16613;BME280;8419;52.358;9.752;2023-02-14T10:18:39;102835.00;;;17.17;39.55
16613;BME280;8419;52.358;9.752;2023-02-14T10:21:29;102825.00;;;17.27;39.50
16613;BME280;8419;52.358;9.752;2023-02-14T10:24:17;102829.00;;;17.33;39.51
16613;BME280;8419;52.358;9.752;2023-02-14T10:27:14;102835.00;;;17.50;39.36
16613;BME280;8419;52.358;9.752;2023-02-14T10:30:12;102826.00;;;17.62;39.24
16613;BME280;8419;52.358;9.752;2023-02-14T10:33:04;102830.00;;;17.76;39.11
16613;BME280;8419;52.358;9.752;2023-02-14T10:35:59;102836.00;;;17.86;39.07
16613;BME280;8419;52.358;9.752;2023-02-14T10:38:56;102839.00;;;17.97;38.99
16613;BME280;8419;52.358;9.752;2023-02-14T10:41:50;102824.00;;;18.10;38.84
16613;BME280;8419;52.358;9.752;2023-02-14T10:44:44;102827.00;;;18.22;38.74
16613;BME280;8419;52.358;9.752;2023-02-14T10:47:40;102825.00;;;18.33;38.65
16613;BME280;8419;52.358;9.752;2023-02-14T10:50:35;102832.00;;;18.37;38.72
16613;BME280;8419;52.358;9.752;2023-02-14T10:53:29;102824.00;;;18.46;38.62
16613;BME280;8419;52.358;9.752;2023-02-14T10:56:21;102812.00;;;18.55;38.56
16613;BME280;8419;52.358;9.752;2023-02-14T10:59:17;102808.00;;;18.62;38.56
16613;BME280;8419;52.358;9.752;2023-02-14T11:02:12;102805.00;;;18.72;38.45
16613;BME280;8419;52.358;9.752;2023-02-14T11:05:02;102803.00;;;18.81;38.32
16613;BME280;8419;52.358;9.752;2023-02-14T11:07:50;102795.00;;;18.90;38.26
16613;BME280;8419;52.358;9.752;2023-02-14T11:10:36;102793.00;;;19.05;38.09
16613;BME280;8419;52.358;9.752;2023-02-14T11:13:29;102795.00;;;19.12;38.04
16613;BME280;8419;52.358;9.752;2023-02-14T11:16:28;102796.00;;;19.25;37.86
16613;BME280;8419;52.358;9.752;2023-02-14T11:19:21;102786.00;;;19.38;37.76
16613;BME280;8419;52.358;9.752;2023-02-14T11:22:08;102783.00;;;19.46;37.69
16613;BME280;8419;52.358;9.752;2023-02-14T11:25:03;102782.00;;;19.53;37.57
16613;BME280;8419;52.358;9.752;2023-02-14T11:27:56;102781.00;;;19.61;37.47
16613;BME280;8419;52.358;9.752;2023-02-14T11:30:45;102769.00;;;19.67;37.41
16613;BME280;8419;52.358;9.752;2023-02-14T11:33:37;102765.00;;;19.74;37.31
16613;BME280;8419;52.358;9.752;2023-02-14T11:36:24;102760.00;;;19.83;37.19
16613;BME280;8419;52.358;9.752;2023-02-14T11:39:24;102757.00;;;19.99;37.00
16613;BME280;8419;52.358;9.752;2023-02-14T11:42:12;102748.00;;;20.16;36.88
16613;BME280;8419;52.358;9.752;2023-02-14T11:44:58;102758.00;;;20.29;36.75
16613;BME280;8419;52.358;9.752;2023-02-14T11:47:45;102762.00;;;20.45;36.57
16613;BME280;8419;52.358;9.752;2023-02-14T11:50:30;102754.00;;;20.61;36.36
16613;BME280;8419;52.358;9.752;2023-02-14T11:53:22;102756.00;;;20.76;36.24
16613;BME280;8419;52.358;9.752;2023-02-14T11:56:09;102752.00;;;20.88;36.14
16613;BME280;8419;52.358;9.752;2023-02-14T11:58:56;102756.00;;;21.05;36.01
16613;BME280;8419;52.358;9.752;2023-02-14T12:01:45;102755.00;;;21.26;35.73
16613;BME280;8419;52.358;9.752;2023-02-14T12:04:33;102751.00;;;21.46;35.52
16613;BME280;8419;52.358;9.752;2023-02-14T12:07:23;102747.00;;;21.67;35.31
16613;BME280;8419;52.358;9.752;2023-02-14T12:10:23;102748.00;;;21.85;35.09
16613;BME280;8419;52.358;9.752;2023-02-14T12:13:23;102741.00;;;22.02;34.97
16613;BME280;8419;52.358;9.752;2023-02-14T12:16:20;102734.00;;;22.23;34.77
16613;BME280;8419;52.358;9.752;2023-02-14T12:19:13;102722.00;;;22.45;34.43
16613;BME280;8419;52.358;9.752;2023-02-14T12:22:03;102718.00;;;22.57;34.18
16613;BME280;8419;52.358;9.752;2023-02-14T12:24:56;102714.00;;;22.74;34.03
16613;BME280;8419;52.358;9.752;2023-02-14T12:27:47;102721.00;;;22.94;33.83
16613;BME280;8419;52.358;9.752;2023-02-14T12:30:34;102711.00;;;23.18;33.53
16613;BME280;8419;52.358;9.752;2023-02-14T12:33:21;102709.00;;;23.41;33.28
16613;BME280;8419;52.358;9.752;2023-02-14T12:36:15;102707.00;;;23.60;33.02
16613;BME280;8419;52.358;9.752;2023-02-14T12:39:08;102691.00;;;23.78;32.81
16613;BME280;8419;52.358;9.752;2023-02-14T12:42:03;102696.00;;;24.06;32.50
16613;BME280;8419;52.358;9.752;2023-02-14T12:44:57;102685.00;;;24.27;32.21
16613;BME280;8419;52.358;9.752;2023-02-14T12:47:54;102688.00;;;24.53;31.83
16613;BME280;8419;52.358;9.752;2023-02-14T12:50:49;102687.00;;;24.86;31.43
16613;BME280;8419;52.358;9.752;2023-02-14T12:53:49;102680.00;;;25.11;31.04
16613;BME280;8419;52.358;9.752;2023-02-14T12:56:47;102682.00;;;25.41;30.78
16613;BME280;8419;52.358;9.752;2023-02-14T12:59:40;102668.00;;;25.55;30.42
16613;BME280;8419;52.358;9.752;2023-02-14T13:02:56;102664.00;;;25.75;30.06
16613;BME280;8419;52.358;9.752;2023-02-14T13:05:55;102653.00;;;26.07;29.54
16613;BME280;8419;52.358;9.752;2023-02-14T13:09:10;102656.00;;;26.13;29.27
16613;BME280;8419;52.358;9.752;2023-02-14T13:12:07;102652.00;;;26.38;29.09
16613;BME280;8419;52.358;9.752;2023-02-14T13:15:04;102650.00;;;26.53;28.74
16613;BME280;8419;52.358;9.752;2023-02-14T13:18:10;102643.00;;;26.78;28.39
16613;BME280;8419;52.358;9.752;2023-02-14T13:21:07;102642.00;;;27.09;27.98
16613;BME280;8419;52.358;9.752;2023-02-14T13:23:57;102638.00;;;27.32;27.67
16613;BME280;8419;52.358;9.752;2023-02-14T13:26:51;102641.00;;;27.36;27.51
16613;BME280;8419;52.358;9.752;2023-02-14T13:29:45;102637.00;;;27.33;27.46
16613;BME280;8419;52.358;9.752;2023-02-14T13:32:36;102631.00;;;27.38;27.45
16613;BME280;8419;52.358;9.752;2023-02-14T13:35:23;102623.00;;;27.39;27.27
16613;BME280;8419;52.358;9.752;2023-02-14T13:38:17;102623.00;;;27.20;27.42
16613;BME280;8419;52.358;9.752;2023-02-14T13:41:04;102612.00;;;27.49;27.05
16613;BME280;8419;52.358;9.752;2023-02-14T13:43:54;102615.00;;;27.70;26.71
16613;BME280;8419;52.358;9.752;2023-02-14T13:46:51;102610.00;;;27.88;26.47
16613;BME280;8419;52.358;9.752;2023-02-14T13:49:39;102599.00;;;28.12;26.33
16613;BME280;8419;52.358;9.752;2023-02-14T13:52:53;102600.00;;;28.33;25.99
16613;BME280;8419;52.358;9.752;2023-02-14T13:55:47;102598.00;;;28.63;25.77
16613;BME280;8419;52.358;9.752;2023-02-14T13:58:51;102593.00;;;28.74;25.67
16613;BME280;8419;52.358;9.752;2023-02-14T14:01:40;102594.00;;;28.96;25.45
16613;BME280;8419;52.358;9.752;2023-02-14T14:04:34;102591.00;;;28.84;25.44
16613;BME280;8419;52.358;9.752;2023-02-14T14:07:25;102593.00;;;28.79;25.48
16613;BME280;8419;52.358;9.752;2023-02-14T14:10:44;102586.00;;;28.49;25.72
16613;BME280;8419;52.358;9.752;2023-02-14T14:17:31;102584.00;;;27.80;26.25
16613;BME280;8419;52.358;9.752;2023-02-14T14:20:41;102585.00;;;27.41;26.52
16613;BME280;8419;52.358;9.752;2023-02-14T14:23:34;102585.00;;;27.43;26.60
16613;BME280;8419;52.358;9.752;2023-02-14T14:26:35;102588.00;;;27.25;26.62
16613;BME280;8419;52.358;9.752;2023-02-14T14:29:26;102584.00;;;27.44;26.51
16613;BME280;8419;52.358;9.752;2023-02-14T14:32:17;102582.00;;;27.55;26.32
16613;BME280;8419;52.358;9.752;2023-02-14T14:35:17;102577.00;;;27.86;26.01
16613;BME280;8419;52.358;9.752;2023-02-14T14:38:03;102581.00;;;28.01;25.85
16613;BME280;8419;52.358;9.752;2023-02-14T14:40:50;102572.00;;;27.83;25.97
16613;BME280;8419;52.358;9.752;2023-02-14T14:43:40;102574.00;;;28.00;25.70
16613;BME280;8419;52.358;9.752;2023-02-14T14:46:26;102567.00;;;27.70;25.95
16613;BME280;8419;52.358;9.752;2023-02-14T14:49:12;102565.00;;;27.08;26.59
16613;BME280;8419;52.358;9.752;2023-02-14T14:52:01;102562.00;;;26.40;27.21
16613;BME280;8419;52.358;9.752;2023-02-14T14:54:48;102561.00;;;25.83;27.77
16613;BME280;8419;52.358;9.752;2023-02-14T15:00:50;102550.00;;;25.17;28.47
16613;BME280;8419;52.358;9.752;2023-02-14T15:03:38;102548.00;;;24.84;28.85
16613;BME280;8419;52.358;9.752;2023-02-14T15:06:24;102550.00;;;24.68;28.94
16613;BME280;8419;52.358;9.752;2023-02-14T15:09:17;102547.00;;;24.45;29.25
16613;BME280;8419;52.358;9.752;2023-02-14T15:12:04;102543.00;;;24.37;29.41
16613;BME280;8419;52.358;9.752;2023-02-14T15:15:11;102544.00;;;24.20;29.64